Time;durP1;ratioP1;P1;durP2;ratioP2;P2;SDS_P1;SDS_P2;PMS_P1;PMS_P2;Temp;Humidity;BMP_temperature;BMP_pressure;BME280_temperature;BME280_humidity;BME280_pressure;Samples;Min_cycle;Max_cycle;Signal;HPM_P1;HPM_P2
2022/08/30 00:01:01;;;;;;;2.07;1.97;;;13.50;67.60;;;;;;5015887;28;20514;-52
2022/08/30 00:03:30;;;;;;;1.70;1.60;;;13.50;69.60;;;;;;5011243;28;20451;-52
2022/08/30 00:05:57;;;;;;;4.43;1.30;;;13.50;71.50;;;;;;5006488;28;20487;-52
2022/08/30 00:08:23;;;;;;;3.67;1.70;;;13.40;73.30;;;;;;5010757;28;20480;-52
2022/08/30 00:10:50;;;;;;;1.53;1.43;;;13.40;75.40;;;;;;5027448;28;20952;-53
2022/08/30 00:13:18;;;;;;;1.53;1.40;;;13.30;75.70;;;;;;5012139;28;20476;-52
2022/08/30 00:15:47;;;;;;;1.77;1.60;;;13.30;68.60;;;;;;5011341;28;20459;-53
2022/08/30 00:18:16;;;;;;;1.90;1.80;;;13.30;69.80;;;;;;5026294;28;20490;-52
2022/08/30 00:20:46;;;;;;;4.37;1.73;;;13.30;65.90;;;;;;5014036;28;20463;-52
2022/08/30 00:23:14;;;;;;;1.43;1.43;;;13.30;61.60;;;;;;5008536;28;20538;-51
2022/08/30 00:25:41;;;;;;;1.50;1.40;;;13.20;66.60;;;;;;5007705;28;20510;-53
2022/08/30 00:28:08;;;;;;;1.57;1.47;;;13.30;62.00;;;;;;5012293;28;20474;-51
2022/08/30 00:30:35;;;;;;;1.20;1.20;;;13.20;71.90;;;;;;5007126;28;20456;-52
2022/08/30 00:33:02;;;;;;;4.00;1.27;;;13.20;74.00;;;;;;5006353;28;20467;-52
2022/08/30 00:35:28;;;;;;;1.50;1.40;;;13.10;70.90;;;;;;5015144;28;20517;-52
2022/08/30 00:37:56;;;;;;;4.10;1.70;;;13.10;66.10;;;;;;5006044;28;21016;-52
2022/08/30 00:40:23;;;;;;;8.10;1.57;;;13.20;61.80;;;;;;5013667;28;20458;-52
2022/08/30 00:42:50;;;;;;;1.83;1.60;;;13.10;59.80;;;;;;5014617;28;20513;-53
2022/08/30 00:45:22;;;;;;;3.90;1.70;;;13.10;59.90;;;;;;5013014;28;20500;-53
2022/08/30 00:47:49;;;;;;;2.30;1.33;;;13.10;64.60;;;;;;5011313;28;20550;-51
2022/08/30 00:50:20;;;;;;;6.23;1.60;;;13.10;68.70;;;;;;5014150;28;20491;-53
2022/08/30 00:52:50;;;;;;;1.83;1.73;;;13.10;68.10;;;;;;5007911;28;20467;-52
2022/08/30 00:55:19;;;;;;;1.60;1.50;;;13.10;65.60;;;;;;5005756;28;20529;-52
2022/08/30 00:57:48;;;;;;;1.80;1.70;;;13.10;57.30;;;;;;5006029;28;20499;-53
2022/08/30 01:00:16;;;;;;;6.53;2.10;;;13.10;58.40;;;;;;5011971;28;20533;-51
2022/08/30 01:02:43;;;;;;;2.70;2.50;;;13.10;58.70;;;;;;5010630;28;20510;-52
2022/08/30 01:05:11;;;;;;;3.00;2.80;;;13.00;59.90;;;;;;5008756;28;20901;-53
2022/08/30 01:07:38;;;;;;;4.33;2.97;;;13.00;59.40;;;;;;5013048;28;20463;-51
2022/08/30 01:10:07;;;;;;;5.47;2.63;;;13.00;53.00;;;;;;5019356;28;20944;-52
2022/08/30 01:12:35;;;;;;;4.83;3.83;;;13.00;51.30;;;;;;5009123;28;20960;-51
2022/08/30 01:15:03;;;;;;;3.47;3.20;;;13.00;53.90;;;;;;5009057;28;20518;-52
2022/08/30 01:17:29;;;;;;;5.60;3.10;;;12.90;56.20;;;;;;5009724;28;20542;-53
2022/08/30 01:20:01;;;;;;;3.27;3.07;;;12.90;56.70;;;;;;5020616;28;20455;-53
2022/08/30 01:22:32;;;;;;;6.33;2.83;;;12.90;58.80;;;;;;5015855;28;20808;-52
2022/08/30 01:25:02;;;;;;;2.63;2.43;;;12.90;56.20;;;;;;5010776;28;20460;-51
2022/08/30 01:27:30;;;;;;;3.43;2.70;;;12.90;52.90;;;;;;5023163;28;20447;-54
2022/08/30 01:29:58;;;;;;;3.00;2.80;;;12.90;58.60;;;;;;5005931;28;20533;-53
2022/08/30 01:32:27;;;;;;;4.90;2.90;;;12.90;51.40;;;;;;5012847;28;20947;-53
2022/08/30 01:34:55;;;;;;;3.90;3.60;;;12.90;53.00;;;;;;5019401;28;20495;-52
2022/08/30 01:37:25;;;;;;;4.30;3.30;;;12.90;53.80;;;;;;5012061;28;20514;-53
2022/08/30 01:39:52;;;;;;;9.43;4.10;;;12.80;56.40;;;;;;5015040;28;20459;-53
2022/08/30 01:42:21;;;;;;;8.90;4.30;;;12.80;55.10;;;;;;5019017;28;20544;-54
2022/08/30 01:44:48;;;;;;;4.90;4.30;;;12.80;53.90;;;;;;5013560;28;21011;-52
2022/08/30 01:47:16;;;;;;;4.37;3.97;;;12.80;49.80;;;;;;5007815;28;20460;-52
2022/08/30 01:49:43;;;;;;;3.90;3.60;;;12.70;50.40;;;;;;5011157;28;20540;-52
2022/08/30 01:52:11;;;;;;;6.50;4.20;;;12.70;45.90;;;;;;5023776;28;20467;-52
2022/08/30 01:54:39;;;;;;;4.60;4.17;;;12.80;46.50;;;;;;5021598;28;20470;-52
2022/08/30 01:57:08;;;;;;;4.50;4.13;;;12.70;45.20;;;;;;5006415;28;20494;-53
2022/08/30 01:59:38;;;;;;;5.27;4.87;;;12.70;46.20;;;;;;5025188;28;20898;-52
2022/08/30 02:02:06;;;;;;;6.10;5.20;;;12.70;48.20;;;;;;5016559;28;20454;-52
2022/08/30 02:04:35;;;;;;;5.07;4.67;;;12.60;47.40;;;;;;5012680;28;20550;-52
2022/08/30 02:07:02;;;;;;;4.83;4.43;;;12.70;46.90;;;;;;5021305;28;20506;-52
2022/08/30 02:09:28;;;;;;;5.80;5.20;;;12.60;45.30;;;;;;5013700;28;20510;-52
2022/08/30 02:11:55;;;;;;;5.53;5.03;;;12.60;46.60;;;;;;5015677;28;20463;-52
2022/08/30 02:14:22;;;;;;;8.73;4.70;;;12.60;49.00;;;;;;5025686;28;20890;-52
2022/08/30 02:16:50;;;;;;;5.27;4.87;;;12.60;44.30;;;;;;5013903;28;20499;-54
2022/08/30 02:19:16;;;;;;;9.57;4.57;;;12.60;44.60;;;;;;5012718;28;20511;-52
2022/08/30 02:21:43;;;;;;;5.40;5.00;;;12.50;49.00;;;;;;5011751;28;20495;-51
2022/08/30 02:24:10;;;;;;;4.70;4.30;;;12.50;49.80;;;;;;5024021;28;20468;-51
2022/08/30 02:26:36;;;;;;;5.80;4.50;;;12.50;43.50;;;;;;5012609;28;20519;-51
2022/08/30 02:29:04;;;;;;;7.27;5.30;;;12.40;44.20;;;;;;5013424;28;21066;-51
2022/08/30 02:31:31;;;;;;;5.50;4.97;;;12.40;43.60;;;;;;5010232;28;20463;-51
2022/08/30 02:33:59;;;;;;;5.97;4.87;;;12.50;45.90;;;;;;5013982;28;20936;-52
2022/08/30 02:36:26;;;;;;;5.30;4.47;;;12.40;46.90;;;;;;5013963;28;20499;-52
2022/08/30 02:38:53;;;;;;;12.07;4.90;;;12.40;46.30;;;;;;5014720;28;21007;-51
2022/08/30 02:41:22;;;;;;;6.20;4.23;;;12.40;42.50;;;;;;5005977;28;20463;-52
2022/08/30 02:43:49;;;;;;;5.53;5.03;;;12.50;35.50;;;;;;5024753;28;20450;-52
2022/08/30 02:46:16;;;;;;;6.00;5.40;;;12.40;37.70;;;;;;5013473;28;20468;-51
2022/08/30 02:48:43;;;;;;;6.43;5.83;;;12.50;35.60;;;;;;5014334;28;20507;-51
2022/08/30 02:51:13;;;;;;;5.60;5.10;;;12.50;33.90;;;;;;5008809;28;20561;-52
2022/08/30 02:53:40;;;;;;;5.20;4.80;;;12.50;31.90;;;;;;5023719;28;20485;-51
2022/08/30 02:56:07;;;;;;;5.50;5.00;;;12.50;33.00;;;;;;5013974;28;20506;-51
2022/08/30 02:58:34;;;;;;;5.87;5.37;;;12.50;32.00;;;;;;5013317;28;20487;-51
2022/08/30 03:01:01;;;;;;;8.27;6.77;;;12.50;29.80;;;;;;5017527;28;20467;-51
2022/08/30 03:03:27;;;;;;;6.43;5.83;;;12.60;29.40;;;;;;5013181;28;20460;-50
2022/08/30 03:05:54;;;;;;;7.83;7.13;;;12.60;24.40;;;;;;5013827;28;20881;-52
2022/08/30 03:08:22;;;;;;;6.87;6.23;;;12.60;24.10;;;;;;5013397;28;20496;-51
2022/08/30 03:10:49;;;;;;;8.13;7.03;;;12.60;24.20;;;;;;5011335;28;20514;-51
2022/08/30 03:13:16;;;;;;;7.10;6.40;;;12.70;21.30;;;;;;5012297;28;20518;-51
2022/08/30 03:19:04;;;;;;;7.17;6.47;;;12.70;74.10;;;;;;4999284;28;20526;-52
2022/08/30 03:21:31;;;;;;;7.07;6.40;;;12.80;81.70;;;;;;5021134;28;20506;-51
2022/08/30 03:23:58;;;;;;;7.47;6.67;;;12.80;76.70;;;;;;5012716;28;20547;-51
2022/08/30 03:26:25;;;;;;;9.33;6.90;;;12.80;78.60;;;;;;5009220;28;20543;-50
2022/08/30 03:28:52;;;;;;;6.47;5.87;;;12.80;90.70;;;;;;5012192;28;20602;-50
2022/08/30 03:31:18;;;;;;;6.03;5.53;;;12.90;94.20;;;;;;5006871;28;20464;-50
2022/08/30 03:33:45;;;;;;;5.80;5.30;;;12.90;95.00;;;;;;5011064;28;21044;-50
2022/08/30 03:36:11;;;;;;;7.83;5.73;;;12.90;94.40;;;;;;5009008;28;20613;-50
2022/08/30 03:38:38;;;;;;;7.40;5.73;;;12.90;95.20;;;;;;5012083;28;21066;-50
2022/08/30 03:41:06;;;;;;;6.40;5.63;;;12.90;97.60;;;;;;5015412;28;20463;-51
2022/08/30 03:43:33;;;;;;;6.73;6.13;;;13.00;99.90;;;;;;5013354;28;20551;-50
2022/08/30 03:46:00;;;;;;;6.80;6.20;;;13.00;99.90;;;;;;5009775;28;20542;-50
2022/08/30 03:48:27;;;;;;;9.53;5.70;;;13.00;99.90;;;;;;5011675;28;20538;-51
2022/08/30 03:50:54;;;;;;;8.00;6.33;;;13.10;99.90;;;;;;5006313;28;20545;-51
2022/08/30 03:53:20;;;;;;;6.77;5.20;;;13.10;99.90;;;;;;5006916;28;20546;-51
2022/08/30 03:55:47;;;;;;;7.83;5.30;;;13.10;99.90;;;;;;5010689;28;20529;-51
2022/08/30 03:58:15;;;;;;;10.70;5.30;;;13.20;99.90;;;;;;5014269;28;20934;-51
2022/08/30 04:00:41;;;;;;;5.53;5.03;;;13.20;99.90;;;;;;5013149;28;21041;-50
2022/08/30 04:03:08;;;;;;;5.50;5.00;;;13.20;99.90;;;;;;5008788;28;20517;-50
2022/08/30 04:05:34;;;;;;;5.97;5.17;;;13.20;99.90;;;;;;5012437;28;20510;-50
2022/08/30 04:08:01;;;;;;;5.57;5.07;;;13.20;99.90;;;;;;5013609;28;20554;-51
2022/08/30 04:10:27;;;;;;;13.23;5.80;;;13.30;99.90;;;;;;5016346;28;20552;-50
2022/08/30 04:12:55;;;;;;;7.13;5.50;;;13.30;99.90;;;;;;5011355;28;20550;-50
2022/08/30 04:15:23;;;;;;;5.23;4.83;;;13.30;99.90;;;;;;5017976;28;20463;-50
2022/08/30 04:17:50;;;;;;;4.70;4.30;;;13.30;99.90;;;;;;5025660;28;20593;-51
2022/08/30 04:20:16;;;;;;;6.73;5.20;;;13.30;99.90;;;;;;5015604;28;20455;-50
2022/08/30 04:22:43;;;;;;;4.73;4.33;;;13.40;99.90;;;;;;5017626;28;20542;-51
2022/08/30 04:25:10;;;;;;;7.70;5.23;;;13.40;99.90;;;;;;5014143;28;20558;-51
2022/08/30 04:27:37;;;;;;;5.90;4.70;;;13.40;99.90;;;;;;5019868;28;20517;-49
2022/08/30 04:30:05;;;;;;;8.73;5.40;;;13.40;99.90;;;;;;5009429;28;20456;-50
2022/08/30 04:32:34;;;;;;;5.90;4.93;;;13.50;99.90;;;;;;5012431;28;20563;-50
2022/08/30 04:35:01;;;;;;;7.63;5.47;;;13.50;99.90;;;;;;5011453;28;20463;-50
2022/08/30 04:37:27;;;;;;;4.73;4.30;;;13.50;99.90;;;;;;5015707;28;20653;-50
2022/08/30 04:39:56;;;;;;;8.33;4.43;;;13.50;99.90;;;;;;5011303;28;20570;-51
2022/08/30 04:42:23;;;;;;;5.10;4.60;;;13.60;99.90;;;;;;5007021;28;20463;-51
2022/08/30 04:44:49;;;;;;;4.80;4.30;;;13.60;99.90;;;;;;5011907;28;20849;-51
2022/08/30 04:47:17;;;;;;;4.50;4.10;;;13.60;99.90;;;;;;5006719;28;20967;-51
2022/08/30 04:49:44;;;;;;;8.63;4.30;;;13.60;99.90;;;;;;5015616;28;20866;-51
2022/08/30 04:52:11;;;;;;;5.97;4.50;;;13.70;99.90;;;;;;5008342;28;20575;-51
2022/08/30 04:54:38;;;;;;;6.43;4.93;;;13.70;99.90;;;;;;5021027;28;20957;-50
2022/08/30 04:57:06;;;;;;;11.00;5.00;;;13.80;99.90;;;;;;5014069;28;20535;-50
2022/08/30 04:59:33;;;;;;;4.87;4.40;;;13.80;99.90;;;;;;5030532;22;20605;-54
2022/08/30 05:01:59;;;;;;;4.73;4.20;;;13.90;99.90;;;;;;5015412;28;20459;-53
2022/08/30 05:04:26;;;;;;;4.33;3.93;;;13.90;99.90;;;;;;5009688;28;21027;-54
2022/08/30 05:06:54;;;;;;;4.20;3.73;;;13.90;99.90;;;;;;5025578;28;20497;-55
2022/08/30 05:09:21;;;;;;;4.97;3.90;;;14.00;99.90;;;;;;5018356;28;21031;-55
2022/08/30 05:11:48;;;;;;;7.97;4.13;;;14.00;99.90;;;;;;5014327;28;20474;-55
2022/08/30 05:14:15;;;;;;;3.90;3.60;;;14.00;99.90;;;;;;5014944;28;20897;-55
2022/08/30 05:16:42;;;;;;;5.50;4.00;;;14.10;99.90;;;;;;5014788;28;20570;-55
2022/08/30 05:19:09;;;;;;;6.40;4.33;;;14.10;99.90;;;;;;5019468;28;20570;-55
2022/08/30 05:21:35;;;;;;;4.40;3.53;;;14.10;99.90;;;;;;5011072;28;20450;-54
2022/08/30 05:24:04;;;;;;;4.40;3.80;;;14.20;99.90;;;;;;5021627;28;20288;-54
2022/08/30 05:26:33;;;;;;;9.13;4.30;;;14.20;99.90;;;;;;5012274;28;20925;-54
2022/08/30 05:29:01;;;;;;;4.83;4.43;;;14.30;99.90;;;;;;5020489;28;20834;-54
2022/08/30 05:31:30;;;;;;;3.90;3.23;;;14.30;99.90;;;;;;5013765;28;20550;-54
2022/08/30 05:33:58;;;;;;;9.70;4.20;;;14.40;99.90;;;;;;5008877;28;20559;-54
2022/08/30 05:36:26;;;;;;;4.07;3.53;;;14.40;99.90;;;;;;5014965;28;21028;-54
2022/08/30 05:38:54;;;;;;;4.03;3.23;;;14.50;99.90;;;;;;5013248;28;20529;-54
2022/08/30 05:41:24;;;;;;;4.37;3.97;;;14.50;99.90;;;;;;5015537;28;20542;-54
2022/08/30 05:43:53;;;;;;;4.60;4.20;;;14.60;99.90;;;;;;5014897;28;20451;-54
2022/08/30 05:46:20;;;;;;;4.50;4.20;;;14.60;99.90;;;;;;5016996;28;20459;-54
2022/08/30 05:48:48;;;;;;;4.47;3.83;;;14.70;99.90;;;;;;5013956;28;20491;-54
2022/08/30 05:51:18;;;;;;;4.23;3.83;;;14.70;99.90;;;;;;5016412;28;20464;-52
2022/08/30 05:53:45;;;;;;;4.73;4.07;;;14.80;99.90;;;;;;5022082;28;20494;-53
2022/08/30 05:56:14;;;;;;;4.27;3.87;;;14.80;99.90;;;;;;5015020;28;20540;-53
2022/08/30 05:58:42;;;;;;;4.20;3.80;;;14.90;99.90;;;;;;5014641;28;21242;-54
2022/08/30 06:01:19;;;;;;;4.83;4.03;;;15.00;99.90;;;;;;5013304;28;20493;-54
2022/08/30 06:03:46;;;;;;;4.03;3.73;;;15.00;99.90;;;;;;5012604;28;20539;-55
2022/08/30 06:06:12;;;;;;;7.43;3.83;;;15.00;99.90;;;;;;5017991;28;20543;-54
2022/08/30 06:08:39;;;;;;;4.57;4.17;;;15.10;99.90;;;;;;5017685;28;20503;-53
2022/08/30 06:11:05;;;;;;;3.97;3.67;;;15.20;99.90;;;;;;5021162;28;20560;-54
2022/08/30 06:13:32;;;;;;;7.27;4.37;;;15.20;99.90;;;;;;5021826;28;20550;-53
2022/08/30 06:16:00;;;;;;;4.30;3.90;;;15.20;99.90;;;;;;5012637;28;20545;-54
2022/08/30 06:18:26;;;;;;;6.23;4.13;;;15.30;99.90;;;;;;5011503;28;21044;-54
2022/08/30 06:20:53;;;;;;;4.57;3.83;;;15.40;99.90;;;;;;5015068;28;20467;-54
2022/08/30 06:23:20;;;;;;;4.77;4.27;;;15.40;99.90;;;;;;5007873;28;20514;-53
2022/08/30 06:25:46;;;;;;;6.00;4.63;;;15.40;99.90;;;;;;5010826;28;20463;-54
2022/08/30 06:28:13;;;;;;;5.20;4.70;;;15.50;99.90;;;;;;5014337;28;20538;-53
2022/08/30 06:30:41;;;;;;;5.37;4.87;;;15.50;99.90;;;;;;5020963;28;20490;-54
2022/08/30 06:33:09;;;;;;;5.17;4.67;;;15.60;99.90;;;;;;5003433;28;20854;-53
2022/08/30 06:35:36;;;;;;;5.00;4.60;;;15.60;99.90;;;;;;5014155;28;20461;-53
2022/08/30 06:38:03;;;;;;;8.33;5.83;;;15.70;99.90;;;;;;5013241;28;20548;-53
2022/08/30 06:40:30;;;;;;;8.83;5.23;;;15.70;99.90;;;;;;5014253;28;20575;-53
2022/08/30 06:42:56;;;;;;;5.57;5.07;;;15.70;99.90;;;;;;5012366;28;20551;-53
2022/08/30 06:45:23;;;;;;;4.93;4.50;;;15.80;99.90;;;;;;5013854;28;20976;-54
2022/08/30 06:47:49;;;;;;;7.37;4.80;;;15.80;99.90;;;;;;5011881;28;20506;-54
2022/08/30 06:50:18;;;;;;;6.20;5.70;;;15.90;99.90;;;;;;5008564;28;20551;-54
2022/08/30 06:52:45;;;;;;;6.20;5.60;;;15.90;99.90;;;;;;5016634;28;20546;-53
2022/08/30 06:55:14;;;;;;;6.10;5.50;;;16.00;99.90;;;;;;5013218;28;20527;-53
2022/08/30 06:57:41;;;;;;;5.90;5.40;;;16.10;99.90;;;;;;5014050;28;20478;-53
2022/08/30 07:00:10;;;;;;;5.50;5.00;;;16.10;99.90;;;;;;5013389;28;21113;-54
2022/08/30 07:02:38;;;;;;;5.70;5.20;;;16.20;99.90;;;;;;5008676;28;20495;-53
2022/08/30 07:05:06;;;;;;;5.73;5.23;;;16.30;99.90;;;;;;5012024;28;20869;-53
2022/08/30 07:07:35;;;;;;;5.67;5.17;;;16.30;99.90;;;;;;5009919;28;20450;-54
2022/08/30 07:10:02;;;;;;;11.00;5.20;;;16.30;99.90;;;;;;5013553;28;20460;-52
2022/08/30 07:12:29;;;;;;;5.23;4.73;;;16.40;99.90;;;;;;5012315;28;20494;-54
2022/08/30 07:14:55;;;;;;;4.50;4.20;;;16.40;99.90;;;;;;5017555;28;20550;-54
2022/08/30 07:20:06;;;;;;;6.10;3.60;;;16.50;99.90;;;;;;5015247;28;20482;-53
2022/08/30 07:22:34;;;;;;;3.57;3.27;;;16.50;99.90;;;;;;5008693;28;20460;-55
2022/08/30 07:25:01;;;;;;;4.60;2.70;;;16.40;99.90;;;;;;5013068;28;20544;-54
2022/08/30 07:27:27;;;;;;;2.90;2.60;;;16.40;99.90;;;;;;5013414;28;20512;-54
2022/08/30 07:29:54;;;;;;;2.10;2.00;;;16.40;99.90;;;;;;5021963;28;20561;-53
2022/08/30 07:32:21;;;;;;;2.27;2.07;;;16.40;99.90;;;;;;5014266;28;20456;-55
2022/08/30 07:34:47;;;;;;;3.77;1.80;;;16.40;99.90;;;;;;5014932;28;20460;-54
2022/08/30 07:37:14;;;;;;;1.30;1.30;;;16.40;99.90;;;;;;5020783;28;20534;-54
2022/08/30 07:39:42;;;;;;;1.60;1.50;;;16.40;99.90;;;;;;5011919;28;20574;-55
2022/08/30 07:42:08;;;;;;;1.30;1.20;;;16.30;99.90;;;;;;5018514;28;20550;-53
2022/08/30 07:44:35;;;;;;;1.50;1.40;;;16.30;99.90;;;;;;5020479;28;20475;-54
2022/08/30 07:47:01;;;;;;;1.73;0.97;;;16.20;99.90;;;;;;5011412;28;20474;-54
2022/08/30 07:49:28;;;;;;;1.53;1.30;;;16.20;91.40;;;;;;5011442;28;20559;-53
2022/08/30 07:51:55;;;;;;;1.53;1.20;;;16.20;21.20;;;;;;5016457;28;20885;-53
2022/08/30 07:54:22;;;;;;;1.40;1.30;;;16.20;20.60;;;;;;5008950;28;20445;-52
2022/08/30 07:56:53;;;;;;;1.60;1.17;;;16.20;22.20;;;;;;5000525;28;20504;-55
2022/08/30 07:59:19;;;;;;;1.30;1.10;;;16.20;22.80;;;;;;5020798;28;21070;-54
2022/08/30 08:01:46;;;;;;;1.47;1.20;;;16.20;23.20;;;;;;5010073;28;20547;-53
2022/08/30 08:04:12;;;;;;;5.50;1.40;;;16.20;25.20;;;;;;5012795;28;20483;-53
2022/08/30 08:06:39;;;;;;;1.40;1.07;;;16.20;23.80;;;;;;5012554;28;20909;-53
2022/08/30 08:09:06;;;;;;;0.97;0.90;;;16.10;26.90;;;;;;5011321;28;20486;-53
2022/08/30 08:11:34;;;;;;;1.20;1.20;;;16.10;22.90;;;;;;5011705;28;20503;-54
2022/08/30 08:14:03;;;;;;;1.00;0.90;;;16.10;22.30;;;;;;5012346;28;20459;-54
2022/08/30 08:16:32;;;;;;;0.80;0.80;;;16.10;20.90;;;;;;5015398;28;20459;-55
2022/08/30 08:18:59;;;;;;;0.63;0.63;;;16.10;77.00;;;;;;5011769;28;20479;-53
2022/08/30 08:21:26;;;;;;;1.93;0.70;;;16.10;23.40;;;;;;5011074;28;20459;-54
2022/08/30 08:23:54;;;;;;;1.73;1.07;;;16.10;27.80;;;;;;5024729;28;21007;-53
2022/08/30 08:26:21;;;;;;;1.20;0.73;;;16.10;29.60;;;;;;5019834;28;20554;-54
2022/08/30 08:28:48;;;;;;;4.00;0.80;;;16.20;29.90;;;;;;5011600;28;20527;-54
2022/08/30 08:31:17;;;;;;;0.83;0.83;;;16.10;37.20;;;;;;5011325;28;20459;-54
2022/08/30 08:33:43;;;;;;;2.97;1.07;;;16.10;46.70;;;;;;5012966;28;20495;-54
2022/08/30 08:36:10;;;;;;;2.67;0.87;;;16.10;51.10;;;;;;5012713;28;20559;-53
2022/08/30 08:38:36;;;;;;;1.87;0.93;;;16.20;61.20;;;;;;5012563;28;21008;-54
2022/08/30 08:41:09;;;;;;;1.07;0.90;;;16.20;59.70;;;;;;5002032;28;20579;-54
2022/08/30 08:43:37;;;;;;;0.90;0.80;;;16.20;65.10;;;;;;5011408;28;20499;-53
2022/08/30 08:46:10;;;;;;;2.80;0.90;;;16.30;70.10;;;;;;5010553;28;20887;-54
2022/08/30 08:48:45;;;;;;;3.70;1.00;;;16.40;72.30;;;;;;5011489;28;20574;-54
2022/08/30 08:54:04;;;;;;;0.83;0.70;;;16.40;99.90;;;;;;5000765;28;20454;-55
2022/08/30 08:56:32;;;;;;;1.10;0.70;;;16.50;99.90;;;;;;5011165;28;20547;-53
2022/08/30 08:58:59;;;;;;;2.93;1.13;;;16.50;99.90;;;;;;5023207;28;20553;-53
2022/08/30 09:01:28;;;;;;;3.37;1.03;;;16.60;99.90;;;;;;5014158;28;20486;-53
2022/08/30 09:03:58;;;;;;;3.03;1.00;;;16.60;99.90;;;;;;5008946;28;20462;-54
2022/08/30 09:06:54;;;;;;;0.70;0.70;;;16.60;99.90;;;;;;5010675;28;20487;-53
2022/08/30 09:09:26;;;;;;;1.40;0.93;;;16.70;99.90;;;;;;5010916;28;20495;-54
2022/08/30 09:11:52;;;;;;;2.70;1.10;;;16.90;99.90;;;;;;5004187;28;20551;-53
2022/08/30 09:14:23;;;;;;;1.63;0.90;;;17.00;99.90;;;;;;5011331;28;20887;-53
2022/08/30 09:16:58;;;;;;;1.37;1.20;;;17.00;99.90;;;;;;5011917;28;20557;-53
2022/08/30 09:19:36;;;;;;;1.40;1.13;;;17.10;99.90;;;;;;5016026;28;20482;-55
2022/08/30 09:22:11;;;;;;;4.00;1.00;;;17.10;99.90;;;;;;5008129;28;20513;-54
2022/08/30 09:24:41;;;;;;;1.70;1.20;;;17.10;99.90;;;;;;5013563;28;20516;-54
2022/08/30 09:27:17;;;;;;;1.00;1.00;;;17.30;99.90;;;;;;5005822;28;20972;-55
2022/08/30 09:29:57;;;;;;;0.90;0.90;;;17.30;99.90;;;;;;5006599;28;20551;-53
2022/08/30 09:32:34;;;;;;;1.50;0.93;;;17.40;99.90;;;;;;5009411;28;20546;-54
2022/08/30 09:35:04;;;;;;;2.10;0.97;;;17.50;99.90;;;;;;5008012;28;20485;-53
2022/08/30 09:37:37;;;;;;;1.23;0.93;;;17.50;99.90;;;;;;5009963;28;20552;-53
2022/08/30 09:40:11;;;;;;;2.50;0.93;;;17.50;94.10;;;;;;5012578;28;20921;-53
2022/08/30 09:42:38;;;;;;;1.00;0.90;;;17.60;99.90;;;;;;5018033;28;20549;-52
2022/08/30 09:45:10;;;;;;;1.57;1.00;;;17.60;77.90;;;;;;5014744;28;20478;-53
2022/08/30 09:47:39;;;;;;;1.60;1.20;;;17.70;85.00;;;;;;5013580;28;20555;-55
2022/08/30 09:50:10;;;;;;;1.00;0.90;;;17.70;35.60;;;;;;5008674;28;20479;-53
2022/08/30 09:52:51;;;;;;;1.00;1.00;;;17.70;48.90;;;;;;5011102;28;20483;-53
2022/08/30 09:55:35;;;;;;;3.73;1.10;;;17.70;50.90;;;;;;5007612;28;20553;-54
2022/08/30 09:58:10;;;;;;;1.00;0.90;;;17.80;51.10;;;;;;5006775;28;20837;-53
2022/08/30 10:00:42;;;;;;;2.40;0.80;;;17.70;70.10;;;;;;5011740;28;20579;-54
2022/08/30 10:03:20;;;;;;;1.77;1.20;;;17.80;62.30;;;;;;5013824;28;20530;-53
2022/08/30 10:05:57;;;;;;;2.50;1.20;;;17.80;58.70;;;;;;5005445;28;20487;-53
2022/08/30 10:08:33;;;;;;;2.13;1.03;;;17.90;48.80;;;;;;5020099;28;21036;-53
2022/08/30 10:11:04;;;;;;;0.97;0.97;;;17.90;76.00;;;;;;5008368;28;20487;-54
2022/08/30 10:13:49;;;;;;;3.63;1.30;;;17.90;76.60;;;;;;5016236;28;20564;-54
2022/08/30 10:16:30;;;;;;;1.83;1.10;;;18.00;77.10;;;;;;5011422;28;20484;-55
2022/08/30 10:19:05;;;;;;;2.40;1.10;;;18.00;69.60;;;;;;5012532;28;21092;-54
2022/08/30 10:21:38;;;;;;;1.50;0.93;;;18.10;68.80;;;;;;5020267;28;20574;-53
2022/08/30 10:24:10;;;;;;;2.33;1.00;;;18.00;98.70;;;;;;5019828;28;20989;-53
2022/08/30 10:26:43;;;;;;;1.77;1.03;;;18.10;91.30;;;;;;5016661;28;20591;-54
2022/08/30 10:29:15;;;;;;;1.60;1.40;;;18.20;83.00;;;;;;5011678;28;20582;-54
2022/08/30 10:31:47;;;;;;;1.77;1.03;;;18.30;66.20;;;;;;5010311;28;20487;-53
2022/08/30 10:34:17;;;;;;;1.40;1.30;;;18.30;72.90;;;;;;5011260;28;20559;-55
2022/08/30 10:36:50;;;;;;;2.40;1.70;;;18.40;59.00;;;;;;5012761;28;20495;-53
2022/08/30 10:39:23;;;;;;;1.40;1.30;;;18.40;39.70;;;;;;5008655;28;21055;-53
2022/08/30 10:41:54;;;;;;;2.93;1.53;;;18.40;31.90;;;;;;5017201;28;20585;-55
2022/08/30 10:44:26;;;;;;;1.63;1.53;;;18.40;44.50;;;;;;5004910;28;20551;-54
2022/08/30 10:47:03;;;;;;;1.20;1.10;;;18.40;40.80;;;;;;5011720;28;20546;-53
2022/08/30 10:49:35;;;;;;;5.17;1.40;;;18.40;32.70;;;;;;5008468;28;20487;-53
2022/08/30 10:52:16;;;;;;;2.10;1.27;;;18.50;28.90;;;;;;5011567;28;20571;-53
2022/08/30 10:54:49;;;;;;;1.27;1.17;;;18.50;29.60;;;;;;5011237;28;20539;-53
2022/08/30 10:57:16;;;;;;;2.30;1.50;;;18.60;54.00;;;;;;5017094;28;20455;-54
2022/08/30 10:59:46;;;;;;;5.73;1.70;;;18.60;64.50;;;;;;5044354;22;20584;-51
2022/08/30 11:02:34;;;;;;;2.13;1.13;;;18.60;68.90;;;;;;5048665;28;20934;-51
2022/08/30 11:05:21;;;;;;;1.30;1.20;;;18.70;71.50;;;;;;5045241;28;20551;-51
2022/08/30 11:07:58;;;;;;;0.93;0.83;;;18.90;72.40;;;;;;5052623;28;20550;-52
2022/08/30 11:10:49;;;;;;;8.20;1.40;;;19.00;72.40;;;;;;5054366;28;20592;-51
2022/08/30 11:13:19;;;;;;;1.60;1.20;;;19.20;89.20;;;;;;5052615;28;20525;-51
2022/08/30 11:16:01;;;;;;;2.10;1.30;;;19.20;99.90;;;;;;5051484;28;20548;-50
2022/08/30 11:18:30;;;;;;;1.47;1.10;;;19.30;99.90;;;;;;5056655;28;20489;-51
2022/08/30 11:21:21;;;;;;;1.93;1.57;;;19.20;99.90;;;;;;5050992;28;20576;-50
2022/08/30 11:24:06;;;;;;;1.63;1.10;;;19.40;99.90;;;;;;5056013;28;20528;-52
2022/08/30 11:26:56;;;;;;;1.93;1.00;;;19.80;99.90;;;;;;5050053;28;21017;-53
2022/08/30 11:29:33;;;;;;;3.30;1.33;;;20.00;99.90;;;;;;5051337;28;20481;-53
2022/08/30 11:32:20;;;;;;;2.53;1.43;;;20.10;99.90;;;;;;5044166;28;20460;-52
2022/08/30 11:34:55;;;;;;;6.63;1.93;;;20.10;99.90;;;;;;5049680;28;20500;-52
2022/08/30 11:37:36;;;;;;;2.20;2.00;;;20.00;99.90;;;;;;5046042;28;20461;-51
2022/08/30 11:40:08;;;;;;;2.20;1.80;;;19.90;99.90;;;;;;5046369;28;20497;-51
2022/08/30 11:42:44;;;;;;;2.13;1.47;;;20.00;99.90;;;;;;5045058;28;20529;-53
2022/08/30 11:45:43;;;;;;;1.90;1.60;;;20.00;99.90;;;;;;5046358;28;20969;-51
2022/08/30 11:48:42;;;;;;;3.40;1.80;;;20.10;99.90;;;;;;5046246;28;20495;-52
2022/08/30 11:51:32;;;;;;;1.90;1.77;;;20.20;99.90;;;;;;5050201;28;20481;-51
2022/08/30 11:54:07;;;;;;;2.00;1.90;;;20.30;99.90;;;;;;5048946;28;20454;-51
2022/08/30 11:56:47;;;;;;;1.77;1.67;;;20.40;99.90;;;;;;5054910;28;20457;-53
2022/08/30 11:59:25;;;;;;;7.70;2.33;;;20.50;99.70;;;;;;5047815;28;20568;-51
2022/08/30 12:01:52;;;;;;;1.60;1.50;;;20.70;99.90;;;;;;5048877;28;20607;-50
2022/08/30 12:04:28;;;;;;;1.60;1.50;;;20.80;99.90;;;;;;5061354;28;20462;-51
2022/08/30 12:06:58;;;;;;;1.70;1.60;;;20.90;61.80;;;;;;5048039;28;20818;-51
2022/08/30 12:10:01;;;;;;;1.60;1.50;;;20.90;48.40;;;;;;5045848;28;20532;-51
2022/08/30 12:12:53;;;;;;;4.63;1.63;;;20.90;36.70;;;;;;5047911;28;20481;-55
2022/08/30 12:15:55;;;;;;;1.80;1.70;;;20.80;39.90;;;;;;5046951;28;20918;-51
2022/08/30 12:18:30;;;;;;;1.30;1.20;;;20.60;35.80;;;;;;5045540;28;20548;-51
2022/08/30 12:21:03;;;;;;;0.97;0.97;;;20.50;21.40;;;;;;5053200;28;20561;-51
2022/08/30 12:23:36;;;;;;;1.20;1.20;;;20.30;99.90;;;;;;5046112;28;20458;-51
2022/08/30 12:26:13;;;;;;;1.40;1.23;;;20.30;99.90;;;;;;5051248;28;20955;-51
2022/08/30 12:28:42;;;;;;;1.83;1.13;;;20.20;99.90;;;;;;5060451;28;20902;-51
2022/08/30 12:31:12;;;;;;;1.83;1.50;;;20.10;99.90;;;;;;5050054;28;20461;-51
2022/08/30 12:33:44;;;;;;;1.43;1.17;;;20.00;99.90;;;;;;5050865;28;20454;-51
2022/08/30 12:36:13;;;;;;;2.40;1.17;;;20.00;99.90;;;;;;5057704;28;20544;-51
2022/08/30 12:38:40;;;;;;;1.10;1.00;;;20.00;99.90;;;;;;5049522;28;20554;-52
2022/08/30 12:41:06;;;;;;;1.30;1.20;;;20.00;99.90;;;;;;5050106;28;20513;-51
2022/08/30 12:43:36;;;;;;;1.63;1.50;;;20.00;99.90;;;;;;5055638;28;20497;-51
2022/08/30 12:46:10;;;;;;;1.70;1.17;;;20.10;99.90;;;;;;5054476;28;20545;-52
2022/08/30 12:48:39;;;;;;;2.00;1.23;;;20.10;99.90;;;;;;5047349;28;20488;-51
2022/08/30 12:51:09;;;;;;;1.30;1.20;;;20.20;99.90;;;;;;5056868;28;20549;-51
2022/08/30 12:53:40;;;;;;;3.77;1.50;;;20.20;99.90;;;;;;5050742;28;20457;-51
2022/08/30 12:56:09;;;;;;;1.70;1.60;;;20.30;99.90;;;;;;5056008;28;20457;-51
2022/08/30 12:58:40;;;;;;;1.93;1.70;;;20.40;99.90;;;;;;5045686;28;21014;-51
2022/08/30 13:01:18;;;;;;;1.30;1.20;;;20.50;99.90;;;;;;5055962;28;20492;-51
2022/08/30 13:03:55;;;;;;;1.17;1.07;;;20.50;99.90;;;;;;5043930;28;20582;-50
2022/08/30 13:06:38;;;;;;;1.70;1.10;;;20.70;99.90;;;;;;5044196;28;20982;-51
2022/08/30 13:09:04;;;;;;;0.80;0.80;;;20.70;99.90;;;;;;5047281;28;20589;-51